sensor_id;sensor_type;location;lat;lon;timestamp;pressure;altitude;pressure_sealevel;temperature;humidity
70200;BME280;57587;55.688;37.600;2023-02-26T00:01:49;97158.09;;;1.92;78.14
70200;BME280;57587;55.688;37.600;2023-02-26T00:04:16;97139.47;;;1.93;78.29
70200;BME280;57587;55.688;37.600;2023-02-26T00:06:43;97140.44;;;2.14;77.49
70200;BME280;57587;55.688;37.600;2023-02-26T00:09:24;97134.25;;;2.00;77.57
70200;BME280;57587;55.688;37.600;2023-02-26T00:11:51;97111.94;;;2.02;78.10
70200;BME280;57587;55.688;37.600;2023-02-26T00:14:19;97113.41;;;2.05;77.70
70200;BME280;57587;55.688;37.600;2023-02-26T00:19:26;97109.09;;;2.04;77.87
70200;BME280;57587;55.688;37.600;2023-02-26T00:21:53;97091.94;;;1.87;78.08
70200;BME280;57587;55.688;37.600;2023-02-26T00:24:21;97086.66;;;1.87;78.47
70200;BME280;57587;55.688;37.600;2023-02-26T00:26:48;97078.88;;;1.78;78.55
70200;BME280;57587;55.688;37.600;2023-02-26T00:29:15;97070.31;;;1.76;78.71
70200;BME280;57587;55.688;37.600;2023-02-26T00:31:42;97073.59;;;1.78;78.57
70200;BME280;57587;55.688;37.600;2023-02-26T00:34:13;97067.09;;;1.74;78.67
70200;BME280;57587;55.688;37.600;2023-02-26T00:42:01;97041.03;;;1.65;79.14
70200;BME280;57587;55.688;37.600;2023-02-26T00:44:28;97015.97;;;1.75;78.98
70200;BME280;57587;55.688;37.600;2023-02-26T00:47:09;97009.09;;;1.74;78.94
70200;BME280;57587;55.688;37.600;2023-02-26T00:50:13;97006.84;;;1.71;78.59
70200;BME280;57587;55.688;37.600;2023-02-26T00:53:21;97005.06;;;1.57;79.46
70200;BME280;57587;55.688;37.600;2023-02-26T00:55:50;97035.44;;;1.53;79.53
70200;BME280;57587;55.688;37.600;2023-02-26T00:58:17;97023.47;;;1.50;79.95
70200;BME280;57587;55.688;37.600;2023-02-26T01:00:45;97033.19;;;1.50;80.28
70200;BME280;57587;55.688;37.600;2023-02-26T01:03:12;97028.41;;;1.60;80.11
70200;BME280;57587;55.688;37.600;2023-02-26T01:05:40;97031.53;;;1.70;79.28
70200;BME280;57587;55.688;37.600;2023-02-26T01:08:31;97021.16;;;1.62;79.08
70200;BME280;57587;55.688;37.600;2023-02-26T01:10:59;97023.19;;;1.67;79.30
70200;BME280;57587;55.688;37.600;2023-02-26T01:13:26;97014.31;;;1.68;79.50
70200;BME280;57587;55.688;37.600;2023-02-26T01:16:00;97010.72;;;1.54;79.39
70200;BME280;57587;55.688;37.600;2023-02-26T01:18:36;97002.31;;;1.65;79.97
70200;BME280;57587;55.688;37.600;2023-02-26T01:21:08;97003.69;;;1.61;79.27
70200;BME280;57587;55.688;37.600;2023-02-26T01:23:39;97000.44;;;1.59;79.60
70200;BME280;57587;55.688;37.600;2023-02-26T01:28:44;96985.44;;;1.59;79.40
70200;BME280;57587;55.688;37.600;2023-02-26T01:31:32;96982.75;;;1.53;79.68
70200;BME280;57587;55.688;37.600;2023-02-26T01:34:17;96969.53;;;1.46;79.83
70200;BME280;57587;55.688;37.600;2023-02-26T01:36:52;96975.22;;;1.50;79.82
70200;BME280;57587;55.688;37.600;2023-02-26T01:42:14;96963.50;;;1.52;79.37
70200;BME280;57587;55.688;37.600;2023-02-26T01:47:20;96957.28;;;1.38;79.69
70200;BME280;57587;55.688;37.600;2023-02-26T01:49:49;96953.50;;;1.48;79.47
70200;BME280;57587;55.688;37.600;2023-02-26T01:55:21;96950.88;;;1.48;79.86
70200;BME280;57587;55.688;37.600;2023-02-26T01:57:51;96950.50;;;1.51;79.57
70200;BME280;57587;55.688;37.600;2023-02-26T02:00:21;96939.78;;;1.52;79.69
70200;BME280;57587;55.688;37.600;2023-02-26T02:02:49;96937.56;;;1.56;79.37
70200;BME280;57587;55.688;37.600;2023-02-26T02:05:21;96942.88;;;1.63;79.16
70200;BME280;57587;55.688;37.600;2023-02-26T02:07:51;96923.75;;;1.54;79.42
70200;BME280;57587;55.688;37.600;2023-02-26T02:10:19;96927.88;;;1.63;79.03
70200;BME280;57587;55.688;37.600;2023-02-26T02:13:04;96924.22;;;1.64;79.42
70200;BME280;57587;55.688;37.600;2023-02-26T02:24:14;96932.84;;;1.51;79.81
70200;BME280;57587;55.688;37.600;2023-02-26T02:26:57;96922.91;;;1.47;79.83
70200;BME280;57587;55.688;37.600;2023-02-26T02:29:48;96917.63;;;1.47;79.61
70200;BME280;57587;55.688;37.600;2023-02-26T02:32:34;96922.81;;;1.33;80.10
70200;BME280;57587;55.688;37.600;2023-02-26T02:35:11;96919.06;;;1.21;80.63
70200;BME280;57587;55.688;37.600;2023-02-26T02:40:21;96910.13;;;1.22;81.40
70200;BME280;57587;55.688;37.600;2023-02-26T02:43:15;96927.34;;;1.18;81.24
70200;BME280;57587;55.688;37.600;2023-02-26T02:45:48;96906.06;;;1.20;81.71
70200;BME280;57587;55.688;37.600;2023-02-26T02:50:50;96901.00;;;1.18;81.47
70200;BME280;57587;55.688;37.600;2023-02-26T02:53:23;96885.63;;;1.22;81.70
70200;BME280;57587;55.688;37.600;2023-02-26T02:55:58;96901.59;;;1.20;81.64
70200;BME280;57587;55.688;37.600;2023-02-26T02:58:30;96887.81;;;1.18;82.06
70200;BME280;57587;55.688;37.600;2023-02-26T03:01:03;96892.63;;;1.14;81.68
70200;BME280;57587;55.688;37.600;2023-02-26T03:03:52;96885.94;;;1.33;81.83
70200;BME280;57587;55.688;37.600;2023-02-26T03:06:21;96881.09;;;1.37;81.07
70200;BME280;57587;55.688;37.600;2023-02-26T03:08:49;96905.84;;;1.43;81.20
70200;BME280;57587;55.688;37.600;2023-02-26T03:11:18;96888.78;;;1.38;80.77
70200;BME280;57587;55.688;37.600;2023-02-26T03:13:46;96892.59;;;1.36;81.03
70200;BME280;57587;55.688;37.600;2023-02-26T03:21:38;96880.88;;;1.38;80.30
70200;BME280;57587;55.688;37.600;2023-02-26T03:24:19;96881.97;;;1.51;81.16
70200;BME280;57587;55.688;37.600;2023-02-26T03:26:55;96876.09;;;1.49;80.40
70200;BME280;57587;55.688;37.600;2023-02-26T03:29:42;96871.44;;;1.51;81.11
70200;BME280;57587;55.688;37.600;2023-02-26T03:35:13;96878.81;;;1.62;79.87
70200;BME280;57587;55.688;37.600;2023-02-26T03:37:47;96872.16;;;1.66;80.04
70200;BME280;57587;55.688;37.600;2023-02-26T03:40:20;96877.81;;;1.63;79.46
70200;BME280;57587;55.688;37.600;2023-02-26T03:42:56;96880.44;;;1.63;79.72
70200;BME280;57587;55.688;37.600;2023-02-26T03:45:32;96882.97;;;1.78;79.77
70200;BME280;57587;55.688;37.600;2023-02-26T03:48:04;96890.28;;;1.82;78.96
70200;BME280;57587;55.688;37.600;2023-02-26T03:50:39;96881.44;;;1.97;78.88
70200;BME280;57587;55.688;37.600;2023-02-26T03:53:42;96891.75;;;1.92;78.70
70200;BME280;57587;55.688;37.600;2023-02-26T03:56:36;96898.88;;;1.98;78.83
70200;BME280;57587;55.688;37.600;2023-02-26T03:59:24;96896.88;;;2.00;78.28
70200;BME280;57587;55.688;37.600;2023-02-26T04:02:18;96901.88;;;1.88;79.05
70200;BME280;57587;55.688;37.600;2023-02-26T04:05:11;96905.00;;;1.98;78.73
70200;BME280;57587;55.688;37.600;2023-02-26T04:07:44;96904.06;;;2.19;78.50
70200;BME280;57587;55.688;37.600;2023-02-26T04:10:15;96890.72;;;2.27;77.96
70200;BME280;57587;55.688;37.600;2023-02-26T04:12:43;96909.84;;;2.36;77.42
70200;BME280;57587;55.688;37.600;2023-02-26T04:15:11;96913.28;;;2.37;77.07
70200;BME280;57587;55.688;37.600;2023-02-26T04:17:39;96922.63;;;2.33;77.60
70200;BME280;57587;55.688;37.600;2023-02-26T04:20:07;96929.91;;;2.30;77.20
70200;BME280;57587;55.688;37.600;2023-02-26T04:23:45;96924.66;;;2.37;77.29
70200;BME280;57587;55.688;37.600;2023-02-26T04:26:52;96926.34;;;2.45;76.72
70200;BME280;57587;55.688;37.600;2023-02-26T04:31:21;96940.31;;;2.39;76.93
70200;BME280;57587;55.688;37.600;2023-02-26T04:34:55;96932.03;;;2.48;76.52
70200;BME280;57587;55.688;37.600;2023-02-26T04:37:44;96943.00;;;2.52;75.97
70200;BME280;57587;55.688;37.600;2023-02-26T04:40:11;96946.69;;;2.64;76.51
70200;BME280;57587;55.688;37.600;2023-02-26T04:42:38;96964.19;;;2.78;76.37
70200;BME280;57587;55.688;37.600;2023-02-26T04:45:06;96970.72;;;2.76;75.46
70200;BME280;57587;55.688;37.600;2023-02-26T04:47:36;96973.13;;;2.77;75.52
70200;BME280;57587;55.688;37.600;2023-02-26T04:50:03;96963.97;;;2.60;74.78
70200;BME280;57587;55.688;37.600;2023-02-26T04:52:31;96970.47;;;2.64;75.35
70200;BME280;57587;55.688;37.600;2023-02-26T04:54:58;96966.41;;;2.68;75.27
70200;BME280;57587;55.688;37.600;2023-02-26T04:57:25;96974.31;;;2.68;75.07
70200;BME280;57587;55.688;37.600;2023-02-26T04:59:53;96989.78;;;2.71;75.35
70200;BME280;57587;55.688;37.600;2023-02-26T05:06:56;97001.16;;;2.78;74.67
70200;BME280;57587;55.688;37.600;2023-02-26T05:09:23;97004.81;;;2.77;74.05
70200;BME280;57587;55.688;37.600;2023-02-26T05:11:51;97010.25;;;2.69;74.35
70200;BME280;57587;55.688;37.600;2023-02-26T05:14:18;97014.97;;;2.74;73.98
70200;BME280;57587;55.688;37.600;2023-02-26T05:16:47;97019.81;;;2.64;74.07
70200;BME280;57587;55.688;37.600;2023-02-26T05:19:15;97019.84;;;2.70;73.62
70200;BME280;57587;55.688;37.600;2023-02-26T05:21:45;97022.47;;;2.70;73.39
70200;BME280;57587;55.688;37.600;2023-02-26T05:24:13;97032.44;;;2.75;72.97
70200;BME280;57587;55.688;37.600;2023-02-26T05:27:19;97035.34;;;2.87;72.41
70200;BME280;57587;55.688;37.600;2023-02-26T05:30:56;97046.28;;;2.84;71.89
70200;BME280;57587;55.688;37.600;2023-02-26T05:33:24;97049.16;;;2.89;71.77
70200;BME280;57587;55.688;37.600;2023-02-26T05:35:51;97047.13;;;2.91;71.87
70200;BME280;57587;55.688;37.600;2023-02-26T05:38:19;97054.63;;;2.87;70.97
70200;BME280;57587;55.688;37.600;2023-02-26T05:40:46;97060.72;;;2.88;70.74
70200;BME280;57587;55.688;37.600;2023-02-26T05:43:13;97071.91;;;2.90;70.99
70200;BME280;57587;55.688;37.600;2023-02-26T05:45:40;97070.31;;;2.89;70.09
70200;BME280;57587;55.688;37.600;2023-02-26T05:48:07;97072.53;;;2.85;70.22
70200;BME280;57587;55.688;37.600;2023-02-26T05:50:36;97086.59;;;2.99;70.64
70200;BME280;57587;55.688;37.600;2023-02-26T05:53:03;97095.94;;;2.95;69.81
70200;BME280;57587;55.688;37.600;2023-02-26T05:55:31;97075.72;;;2.81;70.14
70200;BME280;57587;55.688;37.600;2023-02-26T05:57:58;97092.22;;;2.83;69.51
70200;BME280;57587;55.688;37.600;2023-02-26T06:00:25;97095.13;;;2.94;69.80
70200;BME280;57587;55.688;37.600;2023-02-26T06:02:55;97096.38;;;3.05;69.50
70200;BME280;57587;55.688;37.600;2023-02-26T06:05:47;97102.69;;;3.04;68.38
70200;BME280;57587;55.688;37.600;2023-02-26T06:08:14;97098.34;;;2.96;67.95
70200;BME280;57587;55.688;37.600;2023-02-26T06:10:42;97107.25;;;2.82;68.05
70200;BME280;57587;55.688;37.600;2023-02-26T06:13:10;97113.16;;;2.91;68.08
70200;BME280;57587;55.688;37.600;2023-02-26T06:15:37;97118.25;;;2.92;68.45
70200;BME280;57587;55.688;37.600;2023-02-26T06:18:29;97114.22;;;2.96;68.16
70200;BME280;57587;55.688;37.600;2023-02-26T06:21:08;97116.50;;;3.06;68.12
70200;BME280;57587;55.688;37.600;2023-02-26T06:23:35;97120.19;;;3.12;67.32
70200;BME280;57587;55.688;37.600;2023-02-26T06:26:03;97122.25;;;3.16;67.68
70200;BME280;57587;55.688;37.600;2023-02-26T06:28:31;97136.31;;;3.30;67.96
70200;BME280;57587;55.688;37.600;2023-02-26T06:30:58;97131.06;;;3.37;66.92
70200;BME280;57587;55.688;37.600;2023-02-26T06:33:25;97144.06;;;3.32;66.09
70200;BME280;57587;55.688;37.600;2023-02-26T06:35:52;97138.97;;;3.30;66.72
70200;BME280;57587;55.688;37.600;2023-02-26T06:38:19;97146.22;;;3.21;67.04
70200;BME280;57587;55.688;37.600;2023-02-26T06:40:47;97140.75;;;3.23;66.67
70200;BME280;57587;55.688;37.600;2023-02-26T06:43:14;97153.38;;;3.28;66.87
70200;BME280;57587;55.688;37.600;2023-02-26T06:45:41;97157.66;;;3.29;67.10
70200;BME280;57587;55.688;37.600;2023-02-26T06:48:08;97161.13;;;3.29;66.64
70200;BME280;57587;55.688;37.600;2023-02-26T06:50:36;97159.53;;;3.35;66.57
70200;BME280;57587;55.688;37.600;2023-02-26T06:53:06;97167.38;;;3.21;66.75
70200;BME280;57587;55.688;37.600;2023-02-26T06:55:33;97177.34;;;3.19;66.75
70200;BME280;57587;55.688;37.600;2023-02-26T06:58:03;97178.72;;;3.15;67.43
70200;BME280;57587;55.688;37.600;2023-02-26T07:00:38;97174.13;;;3.31;67.13
70200;BME280;57587;55.688;37.600;2023-02-26T07:03:15;97172.13;;;3.33;66.54
70200;BME280;57587;55.688;37.600;2023-02-26T07:09:05;97191.84;;;3.37;66.90
70200;BME280;57587;55.688;37.600;2023-02-26T07:11:46;97197.75;;;3.39;67.21
70200;BME280;57587;55.688;37.600;2023-02-26T07:14:32;97207.34;;;3.46;67.01
70200;BME280;57587;55.688;37.600;2023-02-26T07:17:08;97197.22;;;3.50;66.65
70200;BME280;57587;55.688;37.600;2023-02-26T07:22:35;97181.94;;;3.52;66.69
70200;BME280;57587;55.688;37.600;2023-02-26T07:25:20;97201.91;;;3.61;65.67
70200;BME280;57587;55.688;37.600;2023-02-26T07:28:15;97205.97;;;3.57;66.10
70200;BME280;57587;55.688;37.600;2023-02-26T07:31:12;97207.56;;;3.52;66.50
70200;BME280;57587;55.688;37.600;2023-02-26T07:34:09;97218.03;;;3.66;65.20
70200;BME280;57587;55.688;37.600;2023-02-26T07:37:56;97208.41;;;3.59;65.68
70200;BME280;57587;55.688;37.600;2023-02-26T07:40:49;97222.13;;;3.76;65.24
70200;BME280;57587;55.688;37.600;2023-02-26T07:43:22;97206.91;;;3.91;64.74
70200;BME280;57587;55.688;37.600;2023-02-26T07:46:30;97219.59;;;4.15;63.48
70200;BME280;57587;55.688;37.600;2023-02-26T07:49:23;97225.69;;;4.09;63.36
70200;BME280;57587;55.688;37.600;2023-02-26T07:52:18;97220.00;;;4.12;64.27
70200;BME280;57587;55.688;37.600;2023-02-26T07:54:58;97231.56;;;4.05;62.91
70200;BME280;57587;55.688;37.600;2023-02-26T08:01:16;97238.69;;;4.04;62.86
70200;BME280;57587;55.688;37.600;2023-02-26T08:04:16;97246.44;;;4.06;62.47
70200;BME280;57587;55.688;37.600;2023-02-26T08:07:33;97246.88;;;4.09;63.17
70200;BME280;57587;55.688;37.600;2023-02-26T08:10:05;97246.06;;;4.22;62.32
70200;BME280;57587;55.688;37.600;2023-02-26T08:12:44;97257.91;;;4.33;60.97
70200;BME280;57587;55.688;37.600;2023-02-26T08:20:42;97262.25;;;4.80;59.55
70200;BME280;57587;55.688;37.600;2023-02-26T08:23:44;97260.38;;;5.21;57.69
70200;BME280;57587;55.688;37.600;2023-02-26T08:27:20;97263.06;;;5.99;58.24
70200;BME280;57587;55.688;37.600;2023-02-26T08:29:51;97265.03;;;5.45;56.31
70200;BME280;57587;55.688;37.600;2023-02-26T08:33:42;97274.25;;;5.09;57.02
70200;BME280;57587;55.688;37.600;2023-02-26T08:40:11;97299.53;;;5.19;56.98
70200;BME280;57587;55.688;37.600;2023-02-26T08:43:30;97295.69;;;6.83;53.34
70200;BME280;57587;55.688;37.600;2023-02-26T08:47:15;97297.72;;;7.56;48.62
70200;BME280;57587;55.688;37.600;2023-02-26T08:49:53;97314.28;;;8.31;47.50
70200;BME280;57587;55.688;37.600;2023-02-26T08:52:20;97312.88;;;10.19;46.39
70200;BME280;57587;55.688;37.600;2023-02-26T08:54:47;97314.78;;;11.21;41.40
70200;BME280;57587;55.688;37.600;2023-02-26T08:57:14;97323.44;;;9.85;42.87
70200;BME280;57587;55.688;37.600;2023-02-26T08:59:41;97322.41;;;8.37;45.88
70200;BME280;57587;55.688;37.600;2023-02-26T09:02:13;97338.47;;;7.56;49.12
70200;BME280;57587;55.688;37.600;2023-02-26T09:04:40;97333.09;;;6.81;50.63
70200;BME280;57587;55.688;37.600;2023-02-26T09:07:07;97341.69;;;6.45;52.18
70200;BME280;57587;55.688;37.600;2023-02-26T09:09:34;97360.22;;;6.00;52.13
70200;BME280;57587;55.688;37.600;2023-02-26T09:12:01;97354.16;;;5.80;53.42
70200;BME280;57587;55.688;37.600;2023-02-26T09:14:28;97351.72;;;5.45;53.66
70200;BME280;57587;55.688;37.600;2023-02-26T09:16:55;97357.44;;;5.22;54.27
70200;BME280;57587;55.688;37.600;2023-02-26T09:19:22;97366.22;;;5.16;54.85
70200;BME280;57587;55.688;37.600;2023-02-26T09:21:50;97371.13;;;5.05;54.45
70200;BME280;57587;55.688;37.600;2023-02-26T09:24:17;97346.81;;;4.82;54.54
70200;BME280;57587;55.688;37.600;2023-02-26T09:26:44;97358.63;;;4.73;54.85
70200;BME280;57587;55.688;37.600;2023-02-26T09:29:11;97356.56;;;4.61;54.57
70200;BME280;57587;55.688;37.600;2023-02-26T09:31:40;97370.41;;;4.57;55.80
70200;BME280;57587;55.688;37.600;2023-02-26T09:34:07;97369.97;;;4.47;55.70
70200;BME280;57587;55.688;37.600;2023-02-26T09:36:37;97376.69;;;4.49;55.91
70200;BME280;57587;55.688;37.600;2023-02-26T09:39:05;97387.53;;;4.13;56.98
70200;BME280;57587;55.688;37.600;2023-02-26T09:41:36;97399.16;;;4.12;57.57
70200;BME280;57587;55.688;37.600;2023-02-26T09:44:24;97394.16;;;3.96;58.34
70200;BME280;57587;55.688;37.600;2023-02-26T09:49:37;97396.69;;;4.10;58.02
70200;BME280;57587;55.688;37.600;2023-02-26T09:52:28;97400.59;;;3.86;57.66
70200;BME280;57587;55.688;37.600;2023-02-26T09:55:05;97392.63;;;3.80;58.90
70200;BME280;57587;55.688;37.600;2023-02-26T09:57:40;97407.16;;;3.90;59.79
70200;BME280;57587;55.688;37.600;2023-02-26T10:05:40;97403.91;;;3.95;58.22
70200;BME280;57587;55.688;37.600;2023-02-26T10:08:15;97429.22;;;4.04;57.91
70200;BME280;57587;55.688;37.600;2023-02-26T10:10:57;97428.88;;;4.21;57.37
70200;BME280;57587;55.688;37.600;2023-02-26T10:13:39;97424.03;;;4.24;56.10
70200;BME280;57587;55.688;37.600;2023-02-26T10:16:26;97428.09;;;4.27;56.59
70200;BME280;57587;55.688;37.600;2023-02-26T10:19:00;97439.91;;;4.24;56.59
70200;BME280;57587;55.688;37.600;2023-02-26T10:24:30;97445.19;;;4.24;56.29
70200;BME280;57587;55.688;37.600;2023-02-26T10:27:05;97447.66;;;4.26;56.35
70200;BME280;57587;55.688;37.600;2023-02-26T10:29:38;97439.81;;;4.04;55.82
70200;BME280;57587;55.688;37.600;2023-02-26T10:35:04;97454.06;;;4.03;55.07
70200;BME280;57587;55.688;37.600;2023-02-26T10:38:05;97453.66;;;4.06;55.38
70200;BME280;57587;55.688;37.600;2023-02-26T10:40:57;97456.53;;;4.11;54.81
70200;BME280;57587;55.688;37.600;2023-02-26T10:43:53;97446.84;;;4.25;55.15
70200;BME280;57587;55.688;37.600;2023-02-26T10:46:33;97450.16;;;4.34;53.75
70200;BME280;57587;55.688;37.600;2023-02-26T10:51:53;97455.75;;;4.18;54.11
70200;BME280;57587;55.688;37.600;2023-02-26T10:54:38;97465.00;;;4.28;55.35
70200;BME280;57587;55.688;37.600;2023-02-26T10:57:17;97463.59;;;4.39;54.28
70200;BME280;57587;55.688;37.600;2023-02-26T10:59:45;97448.13;;;4.43;53.97
70200;BME280;57587;55.688;37.600;2023-02-26T11:02:44;97465.97;;;4.27;53.53
70200;BME280;57587;55.688;37.600;2023-02-26T11:05:24;97461.63;;;4.13;53.89
70200;BME280;57587;55.688;37.600;2023-02-26T11:08:05;97457.88;;;4.29;54.46
70200;BME280;57587;55.688;37.600;2023-02-26T11:10:51;97466.50;;;4.44;54.53
70200;BME280;57587;55.688;37.600;2023-02-26T11:13:24;97459.97;;;4.40;53.73
70200;BME280;57587;55.688;37.600;2023-02-26T11:15:55;97473.34;;;4.32;53.36
70200;BME280;57587;55.688;37.600;2023-02-26T11:21:29;97471.38;;;4.41;52.90
70200;BME280;57587;55.688;37.600;2023-02-26T11:24:10;97487.66;;;4.37;53.60
70200;BME280;57587;55.688;37.600;2023-02-26T11:26:58;97479.88;;;4.36;54.37
70200;BME280;57587;55.688;37.600;2023-02-26T11:29:39;97481.78;;;4.49;53.86
70200;BME280;57587;55.688;37.600;2023-02-26T11:32:28;97475.88;;;4.47;54.50
70200;BME280;57587;55.688;37.600;2023-02-26T11:35:07;97468.84;;;4.26;54.14
70200;BME280;57587;55.688;37.600;2023-02-26T11:37:38;97487.38;;;4.26;55.25
70200;BME280;57587;55.688;37.600;2023-02-26T11:40:18;97476.88;;;4.46;54.48
70200;BME280;57587;55.688;37.600;2023-02-26T11:43:02;97468.91;;;4.39;54.93
70200;BME280;57587;55.688;37.600;2023-02-26T11:45:34;97482.91;;;4.68;53.65
70200;BME280;57587;55.688;37.600;2023-02-26T11:48:25;97490.38;;;4.57;54.30
70200;BME280;57587;55.688;37.600;2023-02-26T11:50:58;97479.97;;;4.49;54.23
70200;BME280;57587;55.688;37.600;2023-02-26T11:56:26;97480.06;;;4.76;53.42
70200;BME280;57587;55.688;37.600;2023-02-26T11:59:01;97489.88;;;4.82;54.46
70200;BME280;57587;55.688;37.600;2023-02-26T12:01:31;97484.94;;;4.66;53.31
70200;BME280;57587;55.688;37.600;2023-02-26T12:04:00;97494.31;;;4.61;54.39
70200;BME280;57587;55.688;37.600;2023-02-26T12:06:28;97479.13;;;4.49;53.76
70200;BME280;57587;55.688;37.600;2023-02-26T12:08:57;97489.34;;;4.52;54.35
70200;BME280;57587;55.688;37.600;2023-02-26T12:17:20;97514.81;;;4.53;54.52
70200;BME280;57587;55.688;37.600;2023-02-26T12:31:12;97546.00;;;3.15;62.42
70200;BME280;57587;55.688;37.600;2023-02-26T12:54:50;97573.44;;;3.14;60.60
70200;BME280;57587;55.688;37.600;2023-02-26T13:08:25;97576.78;;;3.38;59.16
70200;BME280;57587;55.688;37.600;2023-02-26T13:13:47;97596.22;;;3.15;57.48
70200;BME280;57587;55.688;37.600;2023-02-26T13:21:59;97605.09;;;2.93;57.50
70200;BME280;57587;55.688;37.600;2023-02-26T13:24:40;97618.59;;;2.98;56.72
70200;BME280;57587;55.688;37.600;2023-02-26T13:27:10;97616.03;;;2.90;57.32
70200;BME280;57587;55.688;37.600;2023-02-26T13:29:48;97616.84;;;2.90;56.90
70200;BME280;57587;55.688;37.600;2023-02-26T13:32:19;97633.88;;;2.88;56.98
70200;BME280;57587;55.688;37.600;2023-02-26T13:35:05;97625.41;;;2.92;57.09
70200;BME280;57587;55.688;37.600;2023-02-26T13:37:39;97624.88;;;2.82;57.02
70200;BME280;57587;55.688;37.600;2023-02-26T13:59:04;97656.44;;;2.23;59.44
70200;BME280;57587;55.688;37.600;2023-02-26T14:01:34;97666.63;;;2.26;60.45
70200;BME280;57587;55.688;37.600;2023-02-26T14:07:06;97682.56;;;2.18;60.37
70200;BME280;57587;55.688;37.600;2023-02-26T14:10:02;97698.78;;;2.06;58.38
70200;BME280;57587;55.688;37.600;2023-02-26T14:12:39;97708.09;;;1.94;57.85
70200;BME280;57587;55.688;37.600;2023-02-26T14:17:51;97708.31;;;1.84;56.03
70200;BME280;57587;55.688;37.600;2023-02-26T14:20:28;97717.94;;;1.77;53.91
70200;BME280;57587;55.688;37.600;2023-02-26T14:25:44;97714.28;;;1.78;53.25
70200;BME280;57587;55.688;37.600;2023-02-26T14:28:40;97734.91;;;1.75;53.77
70200;BME280;57587;55.688;37.600;2023-02-26T14:34:06;97741.75;;;1.92;53.88
70200;BME280;57587;55.688;37.600;2023-02-26T14:39:06;97735.94;;;1.97;54.30
70200;BME280;57587;55.688;37.600;2023-02-26T14:41:38;97737.72;;;2.04;52.88
70200;BME280;57587;55.688;37.600;2023-02-26T14:44:13;97729.66;;;1.98;52.27
70200;BME280;57587;55.688;37.600;2023-02-26T14:46:42;97737.06;;;2.02;51.79
70200;BME280;57587;55.688;37.600;2023-02-26T14:49:40;97744.16;;;2.02;51.66
70200;BME280;57587;55.688;37.600;2023-02-26T15:00:06;97776.91;;;1.76;52.64
70200;BME280;57587;55.688;37.600;2023-02-26T15:05:39;97781.25;;;1.69;52.33
70200;BME280;57587;55.688;37.600;2023-02-26T15:11:19;97797.81;;;1.47;54.79
70200;BME280;57587;55.688;37.600;2023-02-26T15:22:02;97816.16;;;1.15;56.26
70200;BME280;57587;55.688;37.600;2023-02-26T15:24:34;97828.66;;;1.13;57.17
70200;BME280;57587;55.688;37.600;2023-02-26T15:27:03;97826.53;;;1.09;56.99
70200;BME280;57587;55.688;37.600;2023-02-26T15:29:37;97824.88;;;1.08;57.06
70200;BME280;57587;55.688;37.600;2023-02-26T15:32:16;97829.47;;;1.14;57.27
70200;BME280;57587;55.688;37.600;2023-02-26T15:37:30;97843.31;;;1.16;57.30
70200;BME280;57587;55.688;37.600;2023-02-26T15:40:00;97859.78;;;1.18;57.16
70200;BME280;57587;55.688;37.600;2023-02-26T15:42:34;97864.72;;;0.97;58.00
70200;BME280;57587;55.688;37.600;2023-02-26T15:45:19;97867.03;;;1.00;58.84
70200;BME280;57587;55.688;37.600;2023-02-26T15:47:55;97878.88;;;0.96;58.69
70200;BME280;57587;55.688;37.600;2023-02-26T15:50:29;97861.28;;;0.96;58.87
70200;BME280;57587;55.688;37.600;2023-02-26T15:53:02;97881.84;;;0.84;59.24
70200;BME280;57587;55.688;37.600;2023-02-26T15:55:35;97882.34;;;0.88;58.64
70200;BME280;57587;55.688;37.600;2023-02-26T15:58:04;97885.97;;;0.87;59.13
70200;BME280;57587;55.688;37.600;2023-02-26T16:00:35;97890.56;;;0.85;58.49
70200;BME280;57587;55.688;37.600;2023-02-26T16:03:02;97890.06;;;0.89;58.73
70200;BME280;57587;55.688;37.600;2023-02-26T16:05:30;97887.75;;;0.86;58.65
70200;BME280;57587;55.688;37.600;2023-02-26T16:07:58;97892.72;;;0.98;58.17
70200;BME280;57587;55.688;37.600;2023-02-26T16:12:59;97896.00;;;1.08;57.32
70200;BME280;57587;55.688;37.600;2023-02-26T16:15:34;97909.16;;;1.08;57.56
70200;BME280;57587;55.688;37.600;2023-02-26T16:18:05;97919.06;;;1.06;58.09
70200;BME280;57587;55.688;37.600;2023-02-26T16:20:42;97921.97;;;0.86;59.79
70200;BME280;57587;55.688;37.600;2023-02-26T16:23:22;97934.66;;;0.83;60.94
70200;BME280;57587;55.688;37.600;2023-02-26T16:25:57;97926.94;;;0.81;61.11
70200;BME280;57587;55.688;37.600;2023-02-26T16:30:57;97936.75;;;0.63;60.22
70200;BME280;57587;55.688;37.600;2023-02-26T16:33:25;97931.19;;;0.66;60.59
70200;BME280;57587;55.688;37.600;2023-02-26T16:36:12;97939.38;;;0.63;59.98
70200;BME280;57587;55.688;37.600;2023-02-26T16:41:12;97934.72;;;0.40;60.93
70200;BME280;57587;55.688;37.600;2023-02-26T16:46:13;97959.41;;;0.48;60.08
70200;BME280;57587;55.688;37.600;2023-02-26T16:48:52;97953.78;;;0.34;59.25
70200;BME280;57587;55.688;37.600;2023-02-26T16:51:23;97956.38;;;0.26;58.37
70200;BME280;57587;55.688;37.600;2023-02-26T16:54:24;97956.50;;;0.25;57.87
70200;BME280;57587;55.688;37.600;2023-02-26T16:57:01;97972.28;;;0.25;59.00
70200;BME280;57587;55.688;37.600;2023-02-26T16:59:31;97978.72;;;0.30;57.85
70200;BME280;57587;55.688;37.600;2023-02-26T17:04:35;97994.53;;;0.30;57.99
70200;BME280;57587;55.688;37.600;2023-02-26T17:07:27;97997.19;;;0.38;57.88
70200;BME280;57587;55.688;37.600;2023-02-26T17:09:58;98005.97;;;0.55;57.46
70200;BME280;57587;55.688;37.600;2023-02-26T17:12:42;98000.88;;;0.54;56.77
70200;BME280;57587;55.688;37.600;2023-02-26T17:15:34;98006.59;;;0.41;56.74
70200;BME280;57587;55.688;37.600;2023-02-26T17:18:02;98017.63;;;0.44;57.04
70200;BME280;57587;55.688;37.600;2023-02-26T17:20:30;98013.38;;;0.52;56.59
70200;BME280;57587;55.688;37.600;2023-02-26T17:22:59;98039.97;;;0.40;56.27
70200;BME280;57587;55.688;37.600;2023-02-26T17:25:33;98023.63;;;0.29;57.06
70200;BME280;57587;55.688;37.600;2023-02-26T17:28:01;98018.81;;;0.24;56.99